Marion Dufresne — FNIN — position and weather

sailwx.info

Track history (hours):
 
Tides and Currents Weather Stations Pressure Air Temp Water Temp Dewpoint Dewpoint Depression Visibility Wind Speed Wind Dir Waves Ship Positions

Oceanographic research ship Marion Dufresne (France)

Detailed information on ship capabilities available from University of Delaware's Ocean Information Center and ARCUS's ALIAS (Arctic Logistics Information and Support) project.

Last reported at 2019-Sep-17 05:55 UTC. Time now 2019-Oct-17 18:10 UTC.
Position S 29°52' E 031°02'.
Warning: this ship's position is 30 days out of date.

Length 120 m; beam 21 m.

Type: Other ship. MMSI: 227235000.

Date/timePositionNaut miles runAvg speedWind from/ knotsBaromVisibWave heightAir tempDewpointWater temp
2019-Sep-17 05:55S 29°52' E 031°02'4 6.4
2019-Sep-17 05:15S 29°49' E 031°05'0 0.6
2019-Sep-17 04:56S 29°49' E 031°05'0 0.0
2019-Sep-17 04:31S 29°49' E 031°05'1 2.5
2019-Sep-17 04:00S 29°48' E 031°06'2 3.9
2019-Sep-17 03:31S 29°46' E 031°06'0 0.0
2019-Sep-17 02:59S 29°46' E 031°06'0 0.0
2019-Sep-17 02:29S 29°46' E 031°06'0 0.0
2019-Sep-17 01:53S 29°46' E 031°06'0 0.0
2019-Sep-17 01:28S 29°46' E 031°06'0 0.0
2019-Sep-17 00:58S 29°46' E 031°06'0 0.0
2019-Sep-17 00:28S 29°46' E 031°06'0 0.0
2019-Sep-16 23:58S 29°46' E 031°06'0 0.0
2019-Sep-16 23:31S 29°46' E 031°06'0 0.0
2019-Sep-16 22:57S 29°46' E 031°06'0 0.0
2019-Sep-16 22:30S 29°46' E 031°06'0 0.0
2019-Sep-16 21:57S 29°46' E 031°06'0 0.0
2019-Sep-16 21:27S 29°46' E 031°06'0 0.0
2019-Sep-16 20:59S 29°46' E 031°06'0 0.0
2019-Sep-16 20:29S 29°46' E 031°06'0 0.0
2019-Sep-16 19:59S 29°46' E 031°06'0 0.0
2019-Sep-16 19:29S 29°46' E 031°06'0 0.0
2019-Sep-16 18:56S 29°46' E 031°06'0 0.0
2019-Sep-16 18:28S 29°46' E 031°06'0 0.0
2019-Sep-16 17:58S 29°46' E 031°06'0 0.0
2019-Sep-16 17:28S 29°46' E 031°06'0 0.1
2019-Sep-16 16:55S 29°46' E 031°07'0 0.0
2019-Sep-16 16:30S 29°46' E 031°07'0 0.0
2019-Sep-16 16:00S 29°46' E 031°07'0 0.0
2019-Sep-16 15:30S 29°46' E 031°07'0 0.0
2019-Sep-16 15:00S 29°46' E 031°07'3 5.8
2019-Sep-16 14:30S 29°48' E 031°05'1 2.6
2019-Sep-16 14:00S 29°50' E 031°05'0 0.0
2019-Sep-16 13:30S 29°50' E 031°05'1 1.4
2019-Sep-16 13:00S 29°50' E 031°05'1 1.3
2019-Sep-16 12:30S 29°50' E 031°05'1 2.2
2019-Sep-16 11:59S 29°49' E 031°05'0 0.6
2019-Sep-16 11:30S 29°48' E 031°05'0 0.0
2019-Sep-16 11:00S 29°48' E 031°05'0 0.0
2019-Sep-16 10:30S 29°48' E 031°05'1 0.9
2019-Sep-16 09:56S 29°48' E 031°05'0 0.0
2019-Sep-16 09:26S 29°48' E 031°06'0 0.0
2019-Sep-16 08:56S 29°48' E 031°06'0 0.0
2019-Sep-16 08:26S 29°48' E 031°06'0 0.0
2019-Sep-16 07:59S 29°48' E 031°06'0 0.0
2019-Sep-16 07:15S 29°48' E 031°06'0 0.0
2019-Sep-16 07:00S 29°48' E 031°06'0 0.1
2019-Sep-16 06:27S 29°48' E 031°06'0 0.2
2019-Sep-16 06:00S 29°48' E 031°06'1 2.3
2019-Sep-16 05:30S 29°48' E 031°07'1 2.9
2019-Sep-16 05:00S 29°49' E 031°06'3 5.9
2019-Sep-16 04:30S 29°49' E 031°10'3 6.2
2019-Sep-16 04:01S 29°49' E 031°13'4 7.4
2019-Sep-16 03:30S 29°47' E 031°17'4 7.3
2019-Sep-16 02:59S 29°46' E 031°22'  
Track history (hours):
 
Tides and Currents Weather Stations Pressure Air Temp Water Temp Dewpoint Dewpoint Depression Visibility Wind Speed Wind Dir Waves Ship Positions

Oceanographic research ship Marion Dufresne (France)

Detailed information on ship capabilities available from University of Delaware's Ocean Information Center and ARCUS's ALIAS (Arctic Logistics Information and Support) project.

Last reported at 2019-Sep-17 05:55 UTC. Time now 2019-Oct-17 18:10 UTC.
Position S 29°52' E 031°02'.
Warning: this ship's position is 30 days out of date.

Length 120 m; beam 21 m.

Type: Other ship. MMSI: 227235000.

Date/timePositionNaut miles runAvg speedWind from/ knotsBaromVisibWave heightAir tempDewpointWater temp
2019-Sep-17 05:55S 29°52' E 031°02'4 6.4
2019-Sep-17 05:15S 29°49' E 031°05'0 0.6
2019-Sep-17 04:56S 29°49' E 031°05'0 0.0
2019-Sep-17 04:31S 29°49' E 031°05'1 2.5
2019-Sep-17 04:00S 29°48' E 031°06'2 3.9
2019-Sep-17 03:31S 29°46' E 031°06'0 0.0
2019-Sep-17 02:59S 29°46' E 031°06'0 0.0
2019-Sep-17 02:29S 29°46' E 031°06'0 0.0
2019-Sep-17 01:53S 29°46' E 031°06'0 0.0
2019-Sep-17 01:28S 29°46' E 031°06'0 0.0
2019-Sep-17 00:58S 29°46' E 031°06'0 0.0
2019-Sep-17 00:28S 29°46' E 031°06'0 0.0
2019-Sep-16 23:58S 29°46' E 031°06'0 0.0
2019-Sep-16 23:31S 29°46' E 031°06'0 0.0
2019-Sep-16 22:57S 29°46' E 031°06'0 0.0
2019-Sep-16 22:30S 29°46' E 031°06'0 0.0
2019-Sep-16 21:57S 29°46' E 031°06'0 0.0
2019-Sep-16 21:27S 29°46' E 031°06'0 0.0
2019-Sep-16 20:59S 29°46' E 031°06'0 0.0
2019-Sep-16 20:29S 29°46' E 031°06'0 0.0
2019-Sep-16 19:59S 29°46' E 031°06'0 0.0
2019-Sep-16 19:29S 29°46' E 031°06'0 0.0
2019-Sep-16 18:56S 29°46' E 031°06'0 0.0
2019-Sep-16 18:28S 29°46' E 031°06'0 0.0
2019-Sep-16 17:58S 29°46' E 031°06'0 0.0
2019-Sep-16 17:28S 29°46' E 031°06'0 0.1
2019-Sep-16 16:55S 29°46' E 031°07'0 0.0
2019-Sep-16 16:30S 29°46' E 031°07'0 0.0
2019-Sep-16 16:00S 29°46' E 031°07'0 0.0
2019-Sep-16 15:30S 29°46' E 031°07'0 0.0
2019-Sep-16 15:00S 29°46' E 031°07'3 5.8
2019-Sep-16 14:30S 29°48' E 031°05'1 2.6
2019-Sep-16 14:00S 29°50' E 031°05'0 0.0
2019-Sep-16 13:30S 29°50' E 031°05'1 1.4
2019-Sep-16 13:00S 29°50' E 031°05'1 1.3
2019-Sep-16 12:30S 29°50' E 031°05'1 2.2
2019-Sep-16 11:59S 29°49' E 031°05'0 0.6
2019-Sep-16 11:30S 29°48' E 031°05'0 0.0
2019-Sep-16 11:00S 29°48' E 031°05'0 0.0
2019-Sep-16 10:30S 29°48' E 031°05'1 0.9
2019-Sep-16 09:56S 29°48' E 031°05'0 0.0
2019-Sep-16 09:26S 29°48' E 031°06'0 0.0
2019-Sep-16 08:56S 29°48' E 031°06'0 0.0
2019-Sep-16 08:26S 29°48' E 031°06'0 0.0
2019-Sep-16 07:59S 29°48' E 031°06'0 0.0
2019-Sep-16 07:15S 29°48' E 031°06'0 0.0
2019-Sep-16 07:00S 29°48' E 031°06'0 0.1
2019-Sep-16 06:27S 29°48' E 031°06'0 0.2
2019-Sep-16 06:00S 29°48' E 031°06'1 2.3
2019-Sep-16 05:30S 29°48' E 031°07'1 2.9
2019-Sep-16 05:00S 29°49' E 031°06'3 5.9
2019-Sep-16 04:30S 29°49' E 031°10'3 6.2
2019-Sep-16 04:01S 29°49' E 031°13'4 7.4
2019-Sep-16 03:30S 29°47' E 031°17'4 7.3
2019-Sep-16 02:59S 29°46' E 031°22'  

Dump ship's entire track history